createdAt,value
2019-05-18T00:00:03.000Z,68.20
2019-05-18T00:01:03.000Z,68.62
2019-05-18T00:02:03.000Z,68.17
2019-05-18T00:03:03.000Z,68.30
2019-05-18T00:04:03.000Z,68.86
2019-05-18T00:05:03.000Z,68.93
2019-05-18T00:06:03.000Z,68.13
2019-05-18T00:07:03.000Z,68.08
2019-05-18T00:08:03.000Z,68.10
2019-05-18T00:09:03.000Z,68.26
2019-05-18T00:10:03.000Z,67.86
2019-05-18T00:11:03.000Z,68.51
2019-05-18T00:12:03.000Z,68.40
2019-05-18T00:13:03.000Z,68.59
2019-05-18T00:14:03.000Z,68.96
2019-05-18T00:15:03.000Z,68.94
2019-05-18T00:16:03.000Z,69.75
2019-05-18T00:17:03.000Z,69.43
2019-05-18T00:18:03.000Z,69.74
2019-05-18T00:19:03.000Z,70.19
2019-05-18T00:20:03.000Z,69.33
2019-05-18T00:21:03.000Z,69.96
2019-05-18T00:22:03.000Z,69.90
2019-05-18T00:23:03.000Z,69.86
2019-05-18T00:24:03.000Z,70.02
2019-05-18T00:25:03.000Z,69.92
2019-05-18T00:26:03.000Z,69.63
2019-05-18T00:27:03.000Z,69.78
2019-05-18T00:28:03.000Z,69.42
2019-05-18T00:29:03.000Z,69.68
2019-05-18T00:30:03.000Z,69.93
2019-05-18T00:31:03.000Z,70.35
2019-05-18T00:32:03.000Z,70.46
2019-05-18T00:33:03.000Z,70.35
2019-05-18T00:34:03.000Z,70.42
2019-05-18T00:35:03.000Z,69.91
2019-05-18T00:36:02.000Z,69.34
2019-05-18T00:37:02.000Z,69.48
2019-05-18T00:38:02.000Z,69.61
2019-05-18T00:39:02.000Z,69.57
2019-05-18T00:40:02.000Z,69.44
2019-05-18T00:41:02.000Z,69.91
2019-05-18T00:42:02.000Z,69.78
2019-05-18T00:43:02.000Z,69.75
2019-05-18T00:44:02.000Z,70.29
2019-05-18T00:45:02.000Z,69.87
2019-05-18T00:46:03.000Z,69.64
2019-05-18T00:47:02.000Z,69.78
2019-05-18T00:48:02.000Z,69.66
2019-05-18T00:49:02.000Z,69.79
2019-05-18T00:50:02.000Z,69.54
2019-05-18T00:51:02.000Z,69.75
2019-05-18T00:52:02.000Z,69.97
2019-05-18T00:53:02.000Z,69.94
2019-05-18T00:54:03.000Z,70.38
2019-05-18T00:55:02.000Z,70.06
2019-05-18T00:56:02.000Z,70.73
2019-05-18T00:57:03.000Z,71.32
2019-05-18T00:58:02.000Z,70.50
2019-05-18T00:59:02.000Z,70.34
2019-05-18T01:00:03.000Z,71.12
2019-05-18T01:01:02.000Z,70.65
2019-05-18T01:02:02.000Z,70.30
2019-05-18T01:03:02.000Z,70.59
2019-05-18T01:04:02.000Z,70.56
2019-05-18T01:05:02.000Z,70.52
2019-05-18T01:06:02.000Z,70.05
2019-05-18T01:07:03.000Z,69.99
2019-05-18T01:08:03.000Z,71.02
2019-05-18T01:09:03.000Z,70.85
2019-05-18T01:10:03.000Z,70.73
2019-05-18T01:11:03.000Z,70.26
2019-05-18T01:12:03.000Z,70.28
2019-05-18T01:13:03.000Z,70.15
2019-05-18T01:14:03.000Z,70.22
2019-05-18T01:15:03.000Z,70.58
2019-05-18T01:16:03.000Z,70.69
2019-05-18T01:17:03.000Z,70.61
2019-05-18T01:18:03.000Z,70.48
2019-05-18T01:19:03.000Z,70.26
2019-05-18T01:20:03.000Z,70.11
2019-05-18T01:21:03.000Z,70.39
2019-05-18T01:22:03.000Z,70.27
2019-05-18T01:23:03.000Z,70.34
2019-05-18T01:24:03.000Z,70.36
2019-05-18T01:25:03.000Z,70.34
2019-05-18T01:26:03.000Z,70.52
2019-05-18T01:27:03.000Z,70.93
2019-05-18T01:28:03.000Z,70.89
2019-05-18T01:29:03.000Z,70.74
2019-05-18T01:30:03.000Z,70.39
2019-05-18T01:31:03.000Z,70.51
2019-05-18T01:32:03.000Z,70.44
2019-05-18T01:33:03.000Z,71.06
2019-05-18T01:34:03.000Z,70.95
2019-05-18T01:35:03.000Z,71.22
2019-05-18T01:36:03.000Z,71.27
2019-05-18T01:37:03.000Z,70.80
2019-05-18T01:38:03.000Z,72.19
2019-05-18T01:39:03.000Z,71.66
2019-05-18T01:40:03.000Z,72.06
2019-05-18T01:41:03.000Z,71.82
2019-05-18T01:42:03.000Z,72.03
2019-05-18T01:43:03.000Z,72.07
2019-05-18T01:44:03.000Z,72.43
2019-05-18T01:45:03.000Z,72.16
2019-05-18T01:46:03.000Z,71.99
2019-05-18T01:47:03.000Z,71.92
2019-05-18T01:48:03.000Z,73.99
2019-05-18T01:49:03.000Z,74.41
2019-05-18T01:50:03.000Z,74.23
2019-05-18T01:51:03.000Z,74.40
2019-05-18T01:52:03.000Z,74.36
2019-05-18T01:53:03.000Z,74.30
2019-05-18T01:54:03.000Z,74.46
2019-05-18T01:55:03.000Z,73.38
2019-05-18T01:56:03.000Z,73.44
2019-05-18T01:57:03.000Z,73.33
2019-05-18T01:58:03.000Z,73.48
2019-05-18T01:59:03.000Z,73.99
2019-05-18T02:00:03.000Z,73.72
2019-05-18T02:01:03.000Z,73.34
2019-05-18T02:02:03.000Z,72.95
2019-05-18T02:03:03.000Z,73.18
2019-05-18T02:04:03.000Z,74.02
2019-05-18T02:05:03.000Z,73.35
2019-05-18T02:06:03.000Z,73.19
2019-05-18T02:07:03.000Z,72.68
2019-05-18T02:08:03.000Z,74.01
2019-05-18T02:09:03.000Z,74.16
2019-05-18T02:10:03.000Z,73.75
2019-05-18T02:11:03.000Z,73.05
2019-05-18T02:12:03.000Z,73.03
2019-05-18T02:13:03.000Z,73.84
2019-05-18T02:14:03.000Z,73.16
2019-05-18T02:15:03.000Z,73.12
2019-05-18T02:16:03.000Z,74.96
2019-05-18T02:17:03.000Z,75.01
2019-05-18T02:18:03.000Z,74.53
2019-05-18T02:19:03.000Z,74.62
2019-05-18T02:20:03.000Z,74.04
2019-05-18T02:21:03.000Z,73.62
2019-05-18T02:22:03.000Z,74.17
2019-05-18T02:23:03.000Z,73.47
2019-05-18T02:24:03.000Z,73.60
2019-05-18T02:25:03.000Z,74.74
2019-05-18T02:26:03.000Z,75.83
2019-05-18T02:27:03.000Z,76.29
2019-05-18T02:28:03.000Z,76.66
2019-05-18T02:29:03.000Z,77.40
2019-05-18T02:30:03.000Z,77.38
2019-05-18T02:31:03.000Z,77.28
2019-05-18T02:32:03.000Z,76.77
2019-05-18T02:33:03.000Z,76.29
2019-05-18T02:34:03.000Z,76.34
2019-05-18T02:35:03.000Z,75.82
2019-05-18T02:36:03.000Z,75.09
2019-05-18T02:37:03.000Z,76.01
2019-05-18T02:38:03.000Z,75.37
2019-05-18T02:39:03.000Z,75.48
2019-05-18T02:40:03.000Z,75.23
2019-05-18T02:41:03.000Z,75.55
2019-05-18T02:42:03.000Z,75.58
2019-05-18T02:43:03.000Z,76.22
2019-05-18T02:44:03.000Z,75.90
2019-05-18T02:45:03.000Z,76.35
2019-05-18T02:46:03.000Z,76.36
2019-05-18T02:47:03.000Z,76.57
2019-05-18T02:48:03.000Z,76.54
2019-05-18T02:49:03.000Z,76.47
2019-05-18T02:50:03.000Z,76.32
2019-05-18T02:51:03.000Z,78.00
2019-05-18T02:52:03.000Z,78.51
2019-05-18T02:53:03.000Z,78.07
2019-05-18T02:54:03.000Z,78.30
2019-05-18T02:55:03.000Z,78.37
2019-05-18T02:56:03.000Z,77.92
2019-05-18T02:57:03.000Z,77.15
2019-05-18T02:58:03.000Z,76.79
2019-05-18T02:59:03.000Z,76.56
2019-05-18T03:00:03.000Z,76.47
2019-05-18T03:01:03.000Z,76.58
2019-05-18T03:02:03.000Z,76.52
2019-05-18T03:03:03.000Z,76.34
2019-05-18T03:04:03.000Z,75.62
2019-05-18T03:05:03.000Z,76.93
2019-05-18T03:06:03.000Z,75.85
2019-05-18T03:07:03.000Z,76.08
2019-05-18T03:08:03.000Z,75.61
2019-05-18T03:09:03.000Z,75.93
2019-05-18T03:10:03.000Z,75.74
2019-05-18T03:11:03.000Z,76.24
2019-05-18T03:12:03.000Z,76.28
2019-05-18T03:13:03.000Z,76.27
2019-05-18T03:14:03.000Z,75.98
2019-05-18T03:15:03.000Z,75.80
2019-05-18T03:16:03.000Z,75.37
2019-05-18T03:17:03.000Z,75.31
2019-05-18T03:18:03.000Z,75.56
2019-05-18T03:19:03.000Z,74.98
2019-05-18T03:20:03.000Z,75.81
2019-05-18T03:21:03.000Z,76.18
2019-05-18T03:22:03.000Z,75.90
2019-05-18T03:23:03.000Z,76.05
2019-05-18T03:24:03.000Z,75.56
2019-05-18T03:25:03.000Z,75.74
2019-05-18T03:26:03.000Z,75.82
2019-05-18T03:27:03.000Z,76.08
2019-05-18T03:28:03.000Z,75.24
2019-05-18T03:29:03.000Z,75.52
2019-05-18T03:30:03.000Z,76.91
2019-05-18T03:31:03.000Z,77.01
2019-05-18T03:32:03.000Z,76.64
2019-05-18T03:33:03.000Z,76.95
2019-05-18T03:34:03.000Z,77.00
2019-05-18T03:35:03.000Z,76.46
2019-05-18T03:36:03.000Z,76.47
2019-05-18T03:37:03.000Z,75.95
2019-05-18T03:38:03.000Z,75.55
2019-05-18T03:39:03.000Z,75.55
2019-05-18T03:40:03.000Z,75.40
2019-05-18T03:41:03.000Z,75.95
2019-05-18T03:42:03.000Z,75.74
2019-05-18T03:43:03.000Z,76.96
2019-05-18T03:44:03.000Z,76.47
2019-05-18T03:45:03.000Z,76.74
2019-05-18T03:46:03.000Z,76.21
2019-05-18T03:47:03.000Z,76.38
2019-05-18T03:48:03.000Z,75.78
2019-05-18T03:49:03.000Z,75.57
2019-05-18T03:50:03.000Z,75.86
2019-05-18T03:51:03.000Z,76.44
2019-05-18T03:52:03.000Z,75.88
2019-05-18T03:53:03.000Z,75.25
2019-05-18T03:54:03.000Z,75.38
2019-05-18T03:55:03.000Z,75.27
2019-05-18T03:56:03.000Z,75.07
2019-05-18T03:57:03.000Z,75.73
2019-05-18T03:58:03.000Z,75.44
2019-05-18T03:59:03.000Z,75.49
2019-05-18T04:00:03.000Z,75.18
2019-05-18T04:01:03.000Z,75.35
2019-05-18T04:02:03.000Z,75.23
2019-05-18T04:03:03.000Z,75.06
2019-05-18T04:04:03.000Z,75.15
2019-05-18T04:05:03.000Z,75.26
2019-05-18T04:06:03.000Z,75.49
2019-05-18T04:07:03.000Z,75.48
2019-05-18T04:08:03.000Z,75.28
2019-05-18T04:09:03.000Z,75.62
2019-05-18T04:10:03.000Z,75.56
2019-05-18T04:11:03.000Z,75.13
2019-05-18T04:12:03.000Z,75.14
2019-05-18T04:13:03.000Z,74.94
2019-05-18T04:14:03.000Z,74.96
2019-05-18T04:15:03.000Z,75.05
2019-05-18T04:16:03.000Z,74.83
2019-05-18T04:17:03.000Z,74.88
2019-05-18T04:18:03.000Z,75.27
2019-05-18T04:19:03.000Z,74.85
2019-05-18T04:20:03.000Z,75.09
2019-05-18T04:21:03.000Z,75.43
2019-05-18T04:22:03.000Z,75.60
2019-05-18T04:23:03.000Z,75.27
2019-05-18T04:24:03.000Z,75.49
2019-05-18T04:25:03.000Z,75.59
2019-05-18T04:26:03.000Z,75.51
2019-05-18T04:27:03.000Z,75.21
2019-05-18T04:28:03.000Z,75.11
2019-05-18T04:29:03.000Z,75.92
2019-05-18T04:30:03.000Z,75.57
2019-05-18T04:31:03.000Z,75.62
2019-05-18T04:32:03.000Z,75.72
2019-05-18T04:33:03.000Z,75.59
2019-05-18T04:34:03.000Z,75.62
2019-05-18T04:35:03.000Z,75.25
2019-05-18T04:36:03.000Z,75.09
2019-05-18T04:37:03.000Z,75.50
2019-05-18T04:38:03.000Z,75.48
2019-05-18T04:39:03.000Z,75.42
2019-05-18T04:40:03.000Z,75.25
2019-05-18T04:41:03.000Z,75.48
2019-05-18T04:42:03.000Z,75.20
2019-05-18T04:43:03.000Z,75.23
2019-05-18T04:44:03.000Z,75.17
2019-05-18T04:45:03.000Z,75.02
2019-05-18T04:46:03.000Z,75.32
2019-05-18T04:47:03.000Z,75.21
2019-05-18T04:48:03.000Z,75.58
2019-05-18T04:49:03.000Z,75.11
2019-05-18T04:50:03.000Z,75.04
2019-05-18T04:51:03.000Z,75.13
2019-05-18T04:52:03.000Z,75.24
2019-05-18T04:53:03.000Z,75.53
2019-05-18T04:54:03.000Z,75.29
2019-05-18T04:55:03.000Z,76.01
2019-05-18T04:56:03.000Z,75.92
2019-05-18T04:57:03.000Z,75.88
2019-05-18T04:58:03.000Z,75.47
2019-05-18T04:59:03.000Z,75.20
2019-05-18T05:00:03.000Z,75.48
2019-05-18T05:01:03.000Z,75.60
2019-05-18T05:02:03.000Z,75.74
2019-05-18T05:03:03.000Z,76.84
2019-05-18T05:04:03.000Z,75.90
2019-05-18T05:05:03.000Z,76.16
2019-05-18T05:06:03.000Z,76.09
2019-05-18T05:07:03.000Z,75.28
2019-05-18T05:08:03.000Z,75.39
2019-05-18T05:09:03.000Z,76.65
2019-05-18T05:10:04.000Z,75.27
2019-05-18T05:11:03.000Z,75.27
2019-05-18T05:12:03.000Z,75.09
2019-05-18T05:13:03.000Z,75.24
2019-05-18T05:14:03.000Z,75.09
2019-05-18T05:15:03.000Z,77.03
2019-05-18T05:16:03.000Z,76.48
2019-05-18T05:17:03.000Z,77.47
2019-05-18T05:18:03.000Z,77.15
2019-05-18T05:19:03.000Z,76.54
2019-05-18T05:20:03.000Z,76.36
2019-05-18T05:21:03.000Z,76.10
2019-05-18T05:22:03.000Z,75.77
2019-05-18T05:23:03.000Z,75.69
2019-05-18T05:24:03.000Z,75.37
2019-05-18T05:25:03.000Z,75.69
2019-05-18T05:26:03.000Z,75.48
2019-05-18T05:27:03.000Z,75.68
2019-05-18T05:28:03.000Z,75.73
2019-05-18T05:29:03.000Z,75.53
2019-05-18T05:30:03.000Z,75.44
2019-05-18T05:31:03.000Z,76.36
2019-05-18T05:32:03.000Z,76.64
2019-05-18T05:33:03.000Z,75.50
2019-05-18T05:34:03.000Z,75.56
2019-05-18T05:35:03.000Z,75.63
2019-05-18T05:36:03.000Z,75.40
2019-05-18T05:37:03.000Z,75.46
2019-05-18T05:38:03.000Z,75.44
2019-05-18T05:39:03.000Z,75.86
2019-05-18T05:40:03.000Z,76.12
2019-05-18T05:41:03.000Z,76.09
2019-05-18T05:42:03.000Z,76.20
2019-05-18T05:43:03.000Z,76.31
2019-05-18T05:44:03.000Z,76.82
2019-05-18T05:45:03.000Z,76.14
2019-05-18T05:46:03.000Z,76.85
2019-05-18T05:47:03.000Z,77.26
2019-05-18T05:48:03.000Z,76.95
2019-05-18T05:49:03.000Z,76.74
2019-05-18T05:50:03.000Z,77.25
2019-05-18T05:51:03.000Z,77.13
2019-05-18T05:52:03.000Z,77.88
2019-05-18T05:53:03.000Z,77.97
2019-05-18T05:54:03.000Z,78.54
2019-05-18T05:55:03.000Z,78.35
2019-05-18T05:56:03.000Z,77.72
2019-05-18T05:57:03.000Z,78.60
2019-05-18T05:58:03.000Z,78.72
2019-05-18T05:59:03.000Z,78.68
2019-05-18T06:00:03.000Z,80.38
2019-05-18T06:01:03.000Z,79.38
2019-05-18T06:02:03.000Z,78.61
2019-05-18T06:03:03.000Z,78.46
2019-05-18T06:04:03.000Z,78.66
2019-05-18T06:05:03.000Z,78.26
2019-05-18T06:06:03.000Z,78.36
2019-05-18T06:07:03.000Z,78.54
2019-05-18T06:08:03.000Z,78.94
2019-05-18T06:09:03.000Z,79.61
2019-05-18T06:10:03.000Z,79.75
2019-05-18T06:11:03.000Z,79.18
2019-05-18T06:12:03.000Z,79.47
2019-05-18T06:13:03.000Z,79.06
2019-05-18T06:14:03.000Z,79.55
2019-05-18T06:15:03.000Z,80.10
2019-05-18T06:16:03.000Z,80.07
2019-05-18T06:17:03.000Z,81.06
2019-05-18T06:18:03.000Z,80.54
2019-05-18T06:19:03.000Z,81.35
2019-05-18T06:20:03.000Z,82.62
2019-05-18T06:21:03.000Z,81.70
2019-05-18T06:22:03.000Z,80.90
2019-05-18T06:23:03.000Z,80.21
2019-05-18T06:24:03.000Z,80.07
2019-05-18T06:25:03.000Z,81.02
2019-05-18T06:26:03.000Z,81.25
2019-05-18T06:27:03.000Z,80.94
2019-05-18T06:28:03.000Z,81.03
2019-05-18T06:29:03.000Z,80.33
2019-05-18T06:30:03.000Z,80.82
2019-05-18T06:31:03.000Z,81.10
2019-05-18T06:32:03.000Z,80.22
2019-05-18T06:33:03.000Z,80.24
2019-05-18T06:34:03.000Z,80.86
2019-05-18T06:35:03.000Z,81.88
2019-05-18T06:36:03.000Z,81.34
2019-05-18T06:37:03.000Z,81.67
2019-05-18T06:38:03.000Z,81.47
2019-05-18T06:39:03.000Z,80.36
2019-05-18T06:40:03.000Z,79.97
2019-05-18T06:41:03.000Z,80.14
2019-05-18T06:42:03.000Z,80.58
2019-05-18T06:43:03.000Z,80.09
2019-05-18T06:44:03.000Z,80.65
2019-05-18T06:45:03.000Z,80.30
2019-05-18T06:46:03.000Z,79.85
2019-05-18T06:47:03.000Z,79.60
2019-05-18T06:48:03.000Z,79.53
2019-05-18T06:49:03.000Z,80.55
2019-05-18T06:50:03.000Z,79.60
2019-05-18T06:51:03.000Z,79.69
2019-05-18T06:52:03.000Z,79.20
2019-05-18T06:53:03.000Z,79.26
2019-05-18T06:54:03.000Z,79.39
2019-05-18T06:55:03.000Z,82.28
2019-05-18T06:56:03.000Z,81.27
2019-05-18T06:57:03.000Z,82.41
2019-05-18T06:58:03.000Z,82.33
2019-05-18T06:59:03.000Z,82.58
2019-05-18T07:00:03.000Z,82.12
2019-05-18T07:01:03.000Z,80.85
2019-05-18T07:02:03.000Z,81.62
2019-05-18T07:03:03.000Z,82.64
2019-05-18T07:04:03.000Z,81.37
2019-05-18T07:05:03.000Z,80.37
2019-05-18T07:06:03.000Z,79.94
2019-05-18T07:07:03.000Z,79.41
2019-05-18T07:08:03.000Z,79.83
2019-05-18T07:09:03.000Z,78.94
2019-05-18T07:10:03.000Z,78.70
2019-05-18T07:11:03.000Z,78.93
2019-05-18T07:12:03.000Z,80.11
2019-05-18T07:13:03.000Z,78.89
2019-05-18T07:14:03.000Z,79.76
2019-05-18T07:15:03.000Z,79.46
2019-05-18T07:16:03.000Z,79.60
2019-05-18T07:17:03.000Z,80.34
2019-05-18T07:18:03.000Z,80.97
2019-05-18T07:19:03.000Z,79.59
2019-05-18T07:20:03.000Z,79.84
2019-05-18T07:21:03.000Z,79.03
2019-05-18T07:22:03.000Z,79.12
2019-05-18T07:23:03.000Z,78.39
2019-05-18T07:24:03.000Z,78.61
2019-05-18T07:25:03.000Z,79.60
2019-05-18T07:26:03.000Z,79.27
2019-05-18T07:27:03.000Z,80.04
2019-05-18T07:28:03.000Z,81.13
2019-05-18T07:29:03.000Z,80.75
2019-05-18T07:30:03.000Z,80.82
2019-05-18T07:31:03.000Z,80.83
2019-05-18T07:32:03.000Z,80.99
2019-05-18T07:33:03.000Z,80.32
2019-05-18T07:34:03.000Z,81.05
2019-05-18T07:35:03.000Z,81.27
2019-05-18T07:36:03.000Z,80.42
2019-05-18T07:37:03.000Z,80.62
2019-05-18T07:38:03.000Z,80.51
2019-05-18T07:39:03.000Z,79.87
2019-05-18T07:40:03.000Z,80.34
2019-05-18T07:41:03.000Z,80.53
2019-05-18T07:42:03.000Z,79.86
2019-05-18T07:43:03.000Z,79.45
2019-05-18T07:44:03.000Z,79.85
2019-05-18T07:45:03.000Z,79.01
2019-05-18T07:46:03.000Z,78.53
2019-05-18T07:47:03.000Z,78.48
2019-05-18T07:48:03.000Z,78.07
2019-05-18T07:49:03.000Z,78.11
2019-05-18T07:50:03.000Z,78.44
2019-05-18T07:51:03.000Z,78.23
2019-05-18T07:52:03.000Z,77.80
2019-05-18T07:53:03.000Z,79.11
2019-05-18T07:54:03.000Z,79.83
2019-05-18T07:55:03.000Z,79.28
2019-05-18T07:56:03.000Z,78.41
2019-05-18T07:57:03.000Z,78.18
2019-05-18T07:58:03.000Z,77.98
2019-05-18T07:59:03.000Z,77.72
2019-05-18T08:00:03.000Z,78.96
2019-05-18T08:01:03.000Z,79.32
2019-05-18T08:02:03.000Z,77.85
2019-05-18T08:03:03.000Z,78.84
2019-05-18T08:04:03.000Z,78.01
2019-05-18T08:05:03.000Z,77.76
2019-05-18T08:06:03.000Z,78.64
2019-05-18T08:07:03.000Z,79.20
2019-05-18T08:08:03.000Z,78.66
2019-05-18T08:09:03.000Z,79.13
2019-05-18T08:10:03.000Z,78.37
2019-05-18T08:11:03.000Z,77.75
2019-05-18T08:12:03.000Z,77.74
2019-05-18T08:13:03.000Z,77.26
2019-05-18T08:14:03.000Z,78.23
2019-05-18T08:15:03.000Z,78.23
2019-05-18T08:16:03.000Z,77.53
2019-05-18T08:17:03.000Z,77.06
2019-05-18T08:18:03.000Z,76.68
2019-05-18T08:19:03.000Z,76.10
2019-05-18T08:20:03.000Z,76.26
2019-05-18T08:21:03.000Z,76.36
2019-05-18T08:22:03.000Z,76.17
2019-05-18T08:23:03.000Z,76.25
2019-05-18T08:24:03.000Z,77.01
2019-05-18T08:25:03.000Z,76.13
2019-05-18T08:26:03.000Z,76.65
2019-05-18T08:27:03.000Z,75.68
2019-05-18T08:28:03.000Z,75.74
2019-05-18T08:29:03.000Z,75.86
2019-05-18T08:30:03.000Z,75.83
2019-05-18T08:31:03.000Z,75.10
2019-05-18T08:32:03.000Z,75.11
2019-05-18T08:33:03.000Z,75.41
2019-05-18T08:34:03.000Z,74.97
2019-05-18T08:35:03.000Z,74.25
2019-05-18T08:36:03.000Z,73.54
2019-05-18T08:37:03.000Z,72.75
2019-05-18T08:38:03.000Z,72.75
2019-05-18T08:39:03.000Z,72.56
2019-05-18T08:40:03.000Z,72.42
2019-05-18T08:41:03.000Z,72.23
2019-05-18T08:42:03.000Z,72.90
2019-05-18T08:43:03.000Z,72.87
2019-05-18T08:44:03.000Z,73.07
2019-05-18T08:45:03.000Z,72.84
2019-05-18T08:46:03.000Z,72.64
2019-05-18T08:47:03.000Z,72.23
2019-05-18T08:48:03.000Z,72.33
2019-05-18T08:49:03.000Z,72.95
2019-05-18T08:50:03.000Z,72.33
2019-05-18T08:51:03.000Z,72.50
2019-05-18T08:52:03.000Z,72.41
2019-05-18T08:53:03.000Z,71.50
2019-05-18T08:54:03.000Z,70.15
2019-05-18T08:55:03.000Z,70.38
2019-05-18T08:56:03.000Z,70.06
2019-05-18T08:57:03.000Z,70.12
2019-05-18T08:58:03.000Z,69.99
2019-05-18T08:59:03.000Z,70.12
2019-05-18T09:00:03.000Z,70.51
2019-05-18T09:01:03.000Z,71.19
2019-05-18T09:02:03.000Z,70.57
2019-05-18T09:03:03.000Z,70.43
2019-05-18T09:04:03.000Z,70.46
2019-05-18T09:05:03.000Z,70.42
2019-05-18T09:06:03.000Z,70.55
2019-05-18T09:07:03.000Z,70.60
2019-05-18T09:08:03.000Z,69.70
2019-05-18T09:09:03.000Z,69.77
2019-05-18T09:10:03.000Z,69.91
2019-05-18T09:11:03.000Z,70.41
2019-05-18T09:12:03.000Z,70.03
2019-05-18T09:13:03.000Z,69.52
2019-05-18T09:14:03.000Z,69.63
2019-05-18T09:15:03.000Z,68.82
2019-05-18T09:16:03.000Z,68.61
2019-05-18T09:17:03.000Z,68.16
2019-05-18T09:18:03.000Z,68.25
2019-05-18T09:19:03.000Z,68.10
2019-05-18T09:20:03.000Z,67.56
2019-05-18T09:21:03.000Z,67.16
2019-05-18T09:22:03.000Z,66.62
2019-05-18T09:23:03.000Z,66.92
2019-05-18T09:24:03.000Z,67.05
2019-05-18T09:25:03.000Z,66.78
2019-05-18T09:26:03.000Z,68.02
2019-05-18T09:27:03.000Z,68.24
2019-05-18T09:28:03.000Z,66.96
2019-05-18T09:29:03.000Z,66.71
2019-05-18T09:30:03.000Z,67.13
2019-05-18T09:31:03.000Z,66.95
2019-05-18T09:32:03.000Z,66.33
2019-05-18T09:33:03.000Z,66.67
2019-05-18T09:34:03.000Z,66.73
2019-05-18T09:35:03.000Z,67.03
2019-05-18T09:36:03.000Z,66.61
2019-05-18T09:37:03.000Z,66.92
2019-05-18T09:38:03.000Z,66.22
2019-05-18T09:39:03.000Z,66.26
2019-05-18T09:40:03.000Z,66.28
2019-05-18T09:41:03.000Z,66.10
2019-05-18T09:42:03.000Z,66.38
2019-05-18T09:43:03.000Z,66.19
2019-05-18T09:44:03.000Z,66.16
2019-05-18T09:45:03.000Z,66.08
2019-05-18T09:46:03.000Z,66.13
2019-05-18T09:47:03.000Z,65.62
2019-05-18T09:48:03.000Z,66.08
2019-05-18T09:49:03.000Z,66.15
2019-05-18T09:50:03.000Z,65.33
2019-05-18T09:51:03.000Z,65.75
2019-05-18T09:52:03.000Z,65.51
2019-05-18T09:53:03.000Z,64.87
2019-05-18T09:54:03.000Z,64.88
2019-05-18T09:55:03.000Z,65.42
2019-05-18T09:56:03.000Z,65.35
2019-05-18T09:57:03.000Z,65.23
2019-05-18T09:58:03.000Z,65.07
2019-05-18T09:59:03.000Z,64.76
2019-05-18T10:00:03.000Z,64.26
2019-05-18T10:01:03.000Z,64.46
2019-05-18T10:02:03.000Z,64.30
2019-05-18T10:03:03.000Z,64.73
2019-05-18T10:04:03.000Z,64.06
2019-05-18T10:05:03.000Z,64.47
2019-05-18T10:06:03.000Z,64.24
2019-05-18T10:07:03.000Z,64.38
2019-05-18T10:08:03.000Z,64.41
2019-05-18T10:09:03.000Z,64.69
2019-05-18T10:10:03.000Z,65.17
2019-05-18T10:11:03.000Z,66.17
2019-05-18T10:12:03.000Z,67.21
2019-05-18T10:13:03.000Z,66.74
2019-05-18T10:14:03.000Z,66.70
2019-05-18T10:15:03.000Z,66.32
2019-05-18T10:16:03.000Z,66.06
2019-05-18T10:17:03.000Z,65.50
2019-05-18T10:18:02.000Z,65.88
2019-05-18T10:19:02.000Z,65.61
2019-05-18T10:20:02.000Z,65.42
2019-05-18T10:21:02.000Z,64.57
2019-05-18T10:22:02.000Z,63.32
2019-05-18T10:23:02.000Z,63.78
2019-05-18T10:24:02.000Z,63.62
2019-05-18T10:25:02.000Z,63.71
2019-05-18T10:26:02.000Z,63.39
2019-05-18T10:27:02.000Z,63.12
2019-05-18T10:28:02.000Z,63.03
2019-05-18T10:29:02.000Z,62.57
2019-05-18T10:30:02.000Z,62.46
2019-05-18T10:31:02.000Z,62.44
2019-05-18T10:32:02.000Z,62.46
2019-05-18T10:33:02.000Z,62.76
2019-05-18T10:34:02.000Z,62.48
2019-05-18T10:35:02.000Z,61.88
2019-05-18T10:36:02.000Z,61.91
2019-05-18T10:37:02.000Z,62.01
2019-05-18T10:38:02.000Z,62.53
2019-05-18T10:39:02.000Z,63.02
2019-05-18T10:40:02.000Z,62.87
2019-05-18T10:41:02.000Z,62.98
2019-05-18T10:42:02.000Z,61.46
2019-05-18T10:43:02.000Z,61.78
2019-05-18T10:44:02.000Z,61.53
2019-05-18T10:45:02.000Z,61.61
2019-05-18T10:46:02.000Z,60.84
2019-05-18T10:47:02.000Z,60.63
2019-05-18T10:48:02.000Z,61.20
2019-05-18T10:49:02.000Z,61.55
2019-05-18T10:50:02.000Z,60.44
2019-05-18T10:51:02.000Z,60.43
2019-05-18T10:52:02.000Z,60.87
2019-05-18T10:53:02.000Z,60.51
2019-05-18T10:54:02.000Z,61.11
2019-05-18T10:55:02.000Z,60.74
2019-05-18T10:56:02.000Z,60.84
2019-05-18T10:57:02.000Z,59.73
2019-05-18T10:58:02.000Z,60.77
2019-05-18T10:59:02.000Z,60.48
2019-05-18T11:00:02.000Z,60.45
2019-05-18T11:01:02.000Z,60.87
2019-05-18T11:02:02.000Z,61.03
2019-05-18T11:03:02.000Z,60.37
2019-05-18T11:04:02.000Z,59.95
2019-05-18T11:05:02.000Z,60.63
2019-05-18T11:06:02.000Z,60.45
2019-05-18T11:07:02.000Z,61.10
2019-05-18T11:08:02.000Z,60.69
2019-05-18T11:09:02.000Z,60.98
2019-05-18T11:10:02.000Z,60.79
2019-05-18T11:11:02.000Z,60.69
2019-05-18T11:12:02.000Z,58.78
2019-05-18T11:13:02.000Z,59.36
2019-05-18T11:14:02.000Z,58.44
2019-05-18T11:15:02.000Z,58.95
2019-05-18T11:16:02.000Z,58.39
2019-05-18T11:17:02.000Z,58.86
2019-05-18T11:18:02.000Z,58.55
2019-05-18T11:19:02.000Z,58.93
2019-05-18T11:20:02.000Z,58.39
2019-05-18T11:21:02.000Z,58.14
2019-05-18T11:22:02.000Z,57.95
2019-05-18T11:23:02.000Z,58.72
2019-05-18T11:24:02.000Z,58.55
2019-05-18T11:25:02.000Z,58.35
2019-05-18T11:26:02.000Z,58.54
2019-05-18T11:27:02.000Z,59.25
2019-05-18T11:28:02.000Z,59.43
2019-05-18T11:29:02.000Z,58.52
2019-05-18T11:30:02.000Z,57.73
2019-05-18T11:31:02.000Z,56.78
2019-05-18T11:32:02.000Z,57.13
2019-05-18T11:33:02.000Z,57.45
2019-05-18T11:34:02.000Z,57.49
2019-05-18T11:35:02.000Z,57.22
2019-05-18T11:36:02.000Z,56.89
2019-05-18T11:37:02.000Z,56.73
2019-05-18T11:38:02.000Z,56.46
2019-05-18T11:39:02.000Z,56.86
2019-05-18T11:40:02.000Z,57.40
2019-05-18T11:41:02.000Z,57.15
2019-05-18T11:42:02.000Z,56.90
2019-05-18T11:43:02.000Z,56.54
2019-05-18T11:44:02.000Z,55.37
2019-05-18T11:45:02.000Z,55.88
2019-05-18T11:46:02.000Z,55.63
2019-05-18T11:47:02.000Z,55.96
2019-05-18T11:48:02.000Z,55.67
2019-05-18T11:49:02.000Z,55.42
2019-05-18T11:50:02.000Z,56.04
2019-05-18T11:51:02.000Z,55.48
2019-05-18T11:52:02.000Z,56.12
2019-05-18T11:53:02.000Z,56.20
2019-05-18T11:54:02.000Z,55.66
2019-05-18T11:55:02.000Z,55.25
2019-05-18T11:56:02.000Z,55.31
2019-05-18T11:57:02.000Z,54.85
2019-05-18T11:58:02.000Z,55.12
2019-05-18T11:59:02.000Z,55.04
2019-05-18T12:00:02.000Z,55.04
2019-05-18T12:01:02.000Z,55.08
2019-05-18T12:02:02.000Z,54.58
2019-05-18T12:03:02.000Z,54.57
2019-05-18T12:04:02.000Z,54.74
2019-05-18T12:05:02.000Z,54.46
2019-05-18T12:06:02.000Z,54.94
2019-05-18T12:07:02.000Z,54.61
2019-05-18T12:08:02.000Z,54.85
2019-05-18T12:09:02.000Z,54.43
2019-05-18T12:10:02.000Z,54.36
2019-05-18T12:11:02.000Z,54.37
2019-05-18T12:12:02.000Z,54.02
2019-05-18T12:13:02.000Z,54.50
2019-05-18T12:14:02.000Z,53.84
2019-05-18T12:15:02.000Z,53.19
2019-05-18T12:16:02.000Z,53.73
2019-05-18T12:17:02.000Z,53.50
2019-05-18T12:18:02.000Z,53.50
2019-05-18T12:19:02.000Z,53.36
2019-05-18T12:20:02.000Z,53.48
2019-05-18T12:21:02.000Z,53.51
2019-05-18T12:22:02.000Z,53.28
2019-05-18T12:23:02.000Z,53.19
2019-05-18T12:24:02.000Z,52.87
2019-05-18T12:25:02.000Z,53.00
2019-05-18T12:26:02.000Z,53.13
2019-05-18T12:27:02.000Z,53.41
2019-05-18T12:28:02.000Z,52.78
2019-05-18T12:29:02.000Z,52.86
2019-05-18T12:30:02.000Z,52.99
2019-05-18T12:31:02.000Z,52.69
2019-05-18T12:32:02.000Z,52.88
2019-05-18T12:33:02.000Z,53.25
2019-05-18T12:34:02.000Z,52.06
2019-05-18T12:35:02.000Z,52.06
2019-05-18T12:36:02.000Z,52.26
2019-05-18T12:37:02.000Z,52.54
2019-05-18T12:38:02.000Z,52.31
2019-05-18T12:39:02.000Z,51.57
2019-05-18T12:40:02.000Z,51.39
2019-05-18T12:41:02.000Z,51.47
2019-05-18T12:42:02.000Z,52.13
2019-05-18T12:43:02.000Z,52.52
2019-05-18T12:44:02.000Z,51.29
2019-05-18T12:45:02.000Z,49.52
2019-05-18T12:46:02.000Z,50.21
2019-05-18T12:47:02.000Z,50.63
2019-05-18T12:48:03.000Z,50.87
2019-05-18T12:49:02.000Z,51.17
2019-05-18T12:50:02.000Z,50.65
2019-05-18T12:51:02.000Z,51.69
2019-05-18T12:52:02.000Z,51.49